In Rescue
 
Open Full Screen Window  High Contrast Mode
Wind Gusting 19 knots
15
February 25, 2021 3:35 PM CST
Weather Information
Wind Direction
  250 °
Wind Speed
  15 kt (17 mph)
Wind Gust
  19 kt (22 mph)
Altimeter
30.12 in
Visibility
10 SM
Temperature
03° C
37° F
Dewpoint
-07° C
19° F
Humidity
48%
Sky Condition
Clear
VFR

METAR KDYT 252135Z AUTO 25015G19KT 10SM CLR 03/M07 A3012 RMK AO2

FAA Disclaimer: The data displayed is for advisory purposes only and is not to be used for flight planning or operations.